sensor_id;sensor_type;location;lat;lon;timestamp;P1;durP1;ratioP1;P2;durP2;ratioP2
51467;SDS011;37545;45.302;-122.946;2023-07-08T00:01:17;8.35;;;2.30;;
51467;SDS011;37545;45.302;-122.946;2023-07-08T00:03:47;6.60;;;2.60;;
51467;SDS011;37545;45.302;-122.946;2023-07-08T00:06:17;8.77;;;2.40;;
51467;SDS011;37545;45.302;-122.946;2023-07-08T00:08:47;5.85;;;2.72;;
51467;SDS011;37545;45.302;-122.946;2023-07-08T00:11:18;6.35;;;2.45;;
51467;SDS011;37545;45.302;-122.946;2023-07-08T00:13:48;11.33;;;2.40;;
51467;SDS011;37545;45.302;-122.946;2023-07-08T00:16:17;6.38;;;2.38;;
51467;SDS011;37545;45.302;-122.946;2023-07-08T00:18:48;8.25;;;2.35;;
51467;SDS011;37545;45.302;-122.946;2023-07-08T00:21:16;5.82;;;1.83;;
51467;SDS011;37545;45.302;-122.946;2023-07-08T00:23:45;6.45;;;2.30;;
51467;SDS011;37545;45.302;-122.946;2023-07-08T00:26:15;6.15;;;2.10;;
51467;SDS011;37545;45.302;-122.946;2023-07-08T00:28:48;6.68;;;1.98;;
51467;SDS011;37545;45.302;-122.946;2023-07-08T00:31:17;4.88;;;2.03;;
51467;SDS011;37545;45.302;-122.946;2023-07-08T00:33:49;12.60;;;2.67;;
51467;SDS011;37545;45.302;-122.946;2023-07-08T00:36:18;5.93;;;2.17;;
51467;SDS011;37545;45.302;-122.946;2023-07-08T00:38:49;4.43;;;2.28;;
51467;SDS011;37545;45.302;-122.946;2023-07-08T00:41:18;6.45;;;1.88;;
51467;SDS011;37545;45.302;-122.946;2023-07-08T00:43:53;7.90;;;2.20;;
51467;SDS011;37545;45.302;-122.946;2023-07-08T00:46:34;8.63;;;2.13;;
51467;SDS011;37545;45.302;-122.946;2023-07-08T00:49:19;8.45;;;1.83;;
51467;SDS011;37545;45.302;-122.946;2023-07-08T00:52:20;8.93;;;2.30;;
51467;SDS011;37545;45.302;-122.946;2023-07-08T00:54:51;5.78;;;1.83;;
51467;SDS011;37545;45.302;-122.946;2023-07-08T00:57:21;5.95;;;2.03;;
51467;SDS011;37545;45.302;-122.946;2023-07-08T00:59:56;3.53;;;1.77;;
51467;SDS011;37545;45.302;-122.946;2023-07-08T01:02:31;6.50;;;1.92;;
51467;SDS011;37545;45.302;-122.946;2023-07-08T01:05:04;7.65;;;1.92;;
51467;SDS011;37545;45.302;-122.946;2023-07-08T01:07:35;4.63;;;1.80;;
51467;SDS011;37545;45.302;-122.946;2023-07-08T01:10:08;6.47;;;1.90;;
51467;SDS011;37545;45.302;-122.946;2023-07-08T01:12:43;3.00;;;1.48;;
51467;SDS011;37545;45.302;-122.946;2023-07-08T01:15:16;5.47;;;2.40;;
51467;SDS011;37545;45.302;-122.946;2023-07-08T01:17:45;6.13;;;1.70;;
51467;SDS011;37545;45.302;-122.946;2023-07-08T01:20:19;7.03;;;2.05;;
51467;SDS011;37545;45.302;-122.946;2023-07-08T01:22:49;4.68;;;2.05;;
51467;SDS011;37545;45.302;-122.946;2023-07-08T01:25:17;6.00;;;1.60;;
51467;SDS011;37545;45.302;-122.946;2023-07-08T01:27:49;4.28;;;1.70;;
51467;SDS011;37545;45.302;-122.946;2023-07-08T01:30:21;4.68;;;1.65;;
51467;SDS011;37545;45.302;-122.946;2023-07-08T01:32:51;5.00;;;2.20;;
51467;SDS011;37545;45.302;-122.946;2023-07-08T01:35:25;3.70;;;1.85;;
51467;SDS011;37545;45.302;-122.946;2023-07-08T01:37:57;4.88;;;1.63;;
51467;SDS011;37545;45.302;-122.946;2023-07-08T01:40:29;4.07;;;1.58;;
51467;SDS011;37545;45.302;-122.946;2023-07-08T01:42:59;5.38;;;1.70;;
51467;SDS011;37545;45.302;-122.946;2023-07-08T01:45:30;4.38;;;1.70;;
51467;SDS011;37545;45.302;-122.946;2023-07-08T01:48:02;3.67;;;1.45;;
51467;SDS011;37545;45.302;-122.946;2023-07-08T01:50:34;4.30;;;1.50;;
51467;SDS011;37545;45.302;-122.946;2023-07-08T01:53:09;4.70;;;1.43;;
51467;SDS011;37545;45.302;-122.946;2023-07-08T01:55:42;5.07;;;1.92;;
51467;SDS011;37545;45.302;-122.946;2023-07-08T01:58:11;3.80;;;1.55;;
51467;SDS011;37545;45.302;-122.946;2023-07-08T02:00:40;4.50;;;1.73;;
51467;SDS011;37545;45.302;-122.946;2023-07-08T02:03:09;4.43;;;1.25;;
51467;SDS011;37545;45.302;-122.946;2023-07-08T02:05:37;5.43;;;1.40;;
51467;SDS011;37545;45.302;-122.946;2023-07-08T02:08:07;5.00;;;1.52;;
51467;SDS011;37545;45.302;-122.946;2023-07-08T02:10:36;3.67;;;1.30;;
51467;SDS011;37545;45.302;-122.946;2023-07-08T02:13:06;3.17;;;1.50;;
51467;SDS011;37545;45.302;-122.946;2023-07-08T02:15:54;3.58;;;1.20;;
51467;SDS011;37545;45.302;-122.946;2023-07-08T02:18:24;2.85;;;1.13;;
51467;SDS011;37545;45.302;-122.946;2023-07-08T02:20:52;3.53;;;1.30;;
51467;SDS011;37545;45.302;-122.946;2023-07-08T02:23:26;3.67;;;1.10;;
51467;SDS011;37545;45.302;-122.946;2023-07-08T02:25:55;5.88;;;1.20;;
51467;SDS011;37545;45.302;-122.946;2023-07-08T02:28:23;5.72;;;1.33;;
51467;SDS011;37545;45.302;-122.946;2023-07-08T02:30:52;4.40;;;1.20;;
51467;SDS011;37545;45.302;-122.946;2023-07-08T02:33:21;3.42;;;1.30;;
51467;SDS011;37545;45.302;-122.946;2023-07-08T02:35:53;4.43;;;1.40;;
51467;SDS011;37545;45.302;-122.946;2023-07-08T02:38:21;4.85;;;1.20;;
51467;SDS011;37545;45.302;-122.946;2023-07-08T02:40:51;5.47;;;1.77;;
51467;SDS011;37545;45.302;-122.946;2023-07-08T02:43:23;3.83;;;1.10;;
51467;SDS011;37545;45.302;-122.946;2023-07-08T02:45:51;3.30;;;1.20;;
51467;SDS011;37545;45.302;-122.946;2023-07-08T02:48:20;2.90;;;1.20;;
51467;SDS011;37545;45.302;-122.946;2023-07-08T02:50:49;3.15;;;1.45;;
51467;SDS011;37545;45.302;-122.946;2023-07-08T02:53:17;3.10;;;1.20;;
51467;SDS011;37545;45.302;-122.946;2023-07-08T02:55:48;5.10;;;1.17;;
51467;SDS011;37545;45.302;-122.946;2023-07-08T02:58:18;3.80;;;1.05;;
51467;SDS011;37545;45.302;-122.946;2023-07-08T03:00:51;3.42;;;1.60;;
51467;SDS011;37545;45.302;-122.946;2023-07-08T03:03:20;3.45;;;1.02;;
51467;SDS011;37545;45.302;-122.946;2023-07-08T03:05:55;6.15;;;1.35;;
51467;SDS011;37545;45.302;-122.946;2023-07-08T03:08:24;5.43;;;1.50;;
51467;SDS011;37545;45.302;-122.946;2023-07-08T03:10:54;3.63;;;1.00;;
51467;SDS011;37545;45.302;-122.946;2023-07-08T03:13:26;2.83;;;1.15;;
51467;SDS011;37545;45.302;-122.946;2023-07-08T03:15:56;3.65;;;0.93;;
51467;SDS011;37545;45.302;-122.946;2023-07-08T03:18:26;4.18;;;1.13;;
51467;SDS011;37545;45.302;-122.946;2023-07-08T03:20:55;3.47;;;1.20;;
51467;SDS011;37545;45.302;-122.946;2023-07-08T03:23:27;4.13;;;1.13;;
51467;SDS011;37545;45.302;-122.946;2023-07-08T03:25:55;3.95;;;1.25;;
51467;SDS011;37545;45.302;-122.946;2023-07-08T03:28:26;3.53;;;1.10;;
51467;SDS011;37545;45.302;-122.946;2023-07-08T03:30:54;7.78;;;1.33;;
51467;SDS011;37545;45.302;-122.946;2023-07-08T03:33:23;2.90;;;1.02;;
51467;SDS011;37545;45.302;-122.946;2023-07-08T03:35:51;3.28;;;1.20;;
51467;SDS011;37545;45.302;-122.946;2023-07-08T03:38:22;4.65;;;1.20;;
51467;SDS011;37545;45.302;-122.946;2023-07-08T03:40:51;3.47;;;1.20;;
51467;SDS011;37545;45.302;-122.946;2023-07-08T03:43:19;3.35;;;1.13;;
51467;SDS011;37545;45.302;-122.946;2023-07-08T03:45:49;2.83;;;1.02;;
51467;SDS011;37545;45.302;-122.946;2023-07-08T03:48:20;5.82;;;1.15;;
51467;SDS011;37545;45.302;-122.946;2023-07-08T03:50:49;3.47;;;1.10;;
51467;SDS011;37545;45.302;-122.946;2023-07-08T03:53:18;3.40;;;0.82;;
51467;SDS011;37545;45.302;-122.946;2023-07-08T03:55:46;3.25;;;0.85;;
51467;SDS011;37545;45.302;-122.946;2023-07-08T03:58:15;3.38;;;1.00;;
51467;SDS011;37545;45.302;-122.946;2023-07-08T04:00:43;2.65;;;0.93;;
51467;SDS011;37545;45.302;-122.946;2023-07-08T04:03:13;4.63;;;1.20;;
51467;SDS011;37545;45.302;-122.946;2023-07-08T04:05:42;2.67;;;0.90;;
51467;SDS011;37545;45.302;-122.946;2023-07-08T04:08:10;3.75;;;1.20;;
51467;SDS011;37545;45.302;-122.946;2023-07-08T04:10:39;2.50;;;1.08;;
51467;SDS011;37545;45.302;-122.946;2023-07-08T04:13:07;4.38;;;1.23;;
51467;SDS011;37545;45.302;-122.946;2023-07-08T04:15:36;2.75;;;0.90;;
51467;SDS011;37545;45.302;-122.946;2023-07-08T04:18:04;2.08;;;1.05;;
51467;SDS011;37545;45.302;-122.946;2023-07-08T04:20:34;3.47;;;1.00;;
51467;SDS011;37545;45.302;-122.946;2023-07-08T04:23:03;4.07;;;1.15;;
51467;SDS011;37545;45.302;-122.946;2023-07-08T04:25:34;5.43;;;1.42;;
51467;SDS011;37545;45.302;-122.946;2023-07-08T04:28:03;2.97;;;0.95;;
51467;SDS011;37545;45.302;-122.946;2023-07-08T04:30:32;2.60;;;0.90;;
51467;SDS011;37545;45.302;-122.946;2023-07-08T04:33:06;5.65;;;0.98;;
51467;SDS011;37545;45.302;-122.946;2023-07-08T04:35:41;4.03;;;1.00;;
51467;SDS011;37545;45.302;-122.946;2023-07-08T04:38:11;2.60;;;0.98;;
51467;SDS011;37545;45.302;-122.946;2023-07-08T04:40:46;2.00;;;0.90;;
51467;SDS011;37545;45.302;-122.946;2023-07-08T04:43:16;3.40;;;1.00;;
51467;SDS011;37545;45.302;-122.946;2023-07-08T04:45:46;1.80;;;0.90;;
51467;SDS011;37545;45.302;-122.946;2023-07-08T04:48:17;3.03;;;1.02;;
51467;SDS011;37545;45.302;-122.946;2023-07-08T04:50:49;5.20;;;1.00;;
51467;SDS011;37545;45.302;-122.946;2023-07-08T04:53:21;3.13;;;0.98;;
51467;SDS011;37545;45.302;-122.946;2023-07-08T04:55:50;2.92;;;1.08;;
51467;SDS011;37545;45.302;-122.946;2023-07-08T04:58:20;3.50;;;0.80;;
51467;SDS011;37545;45.302;-122.946;2023-07-08T05:00:49;4.18;;;0.88;;
51467;SDS011;37545;45.302;-122.946;2023-07-08T05:03:18;2.05;;;0.82;;
51467;SDS011;37545;45.302;-122.946;2023-07-08T05:05:46;2.13;;;0.80;;
51467;SDS011;37545;45.302;-122.946;2023-07-08T05:08:16;3.75;;;1.00;;
51467;SDS011;37545;45.302;-122.946;2023-07-08T05:10:45;4.25;;;1.00;;
51467;SDS011;37545;45.302;-122.946;2023-07-08T05:13:13;3.53;;;0.90;;
51467;SDS011;37545;45.302;-122.946;2023-07-08T05:15:42;2.33;;;0.80;;
51467;SDS011;37545;45.302;-122.946;2023-07-08T05:18:10;3.22;;;0.73;;
51467;SDS011;37545;45.302;-122.946;2023-07-08T05:20:39;3.83;;;0.80;;
51467;SDS011;37545;45.302;-122.946;2023-07-08T05:23:08;3.58;;;0.70;;
51467;SDS011;37545;45.302;-122.946;2023-07-08T05:25:39;2.63;;;0.77;;
51467;SDS011;37545;45.302;-122.946;2023-07-08T05:28:07;1.95;;;0.63;;
51467;SDS011;37545;45.302;-122.946;2023-07-08T05:30:43;1.85;;;0.60;;
51467;SDS011;37545;45.302;-122.946;2023-07-08T05:33:19;2.08;;;0.60;;
51467;SDS011;37545;45.302;-122.946;2023-07-08T05:35:49;1.27;;;0.63;;
51467;SDS011;37545;45.302;-122.946;2023-07-08T05:38:18;2.97;;;1.05;;
51467;SDS011;37545;45.302;-122.946;2023-07-08T05:40:50;2.45;;;0.75;;
51467;SDS011;37545;45.302;-122.946;2023-07-08T05:43:21;1.35;;;0.70;;
51467;SDS011;37545;45.302;-122.946;2023-07-08T05:45:51;1.08;;;0.50;;
51467;SDS011;37545;45.302;-122.946;2023-07-08T05:48:24;1.70;;;0.80;;
51467;SDS011;37545;45.302;-122.946;2023-07-08T05:50:53;3.55;;;0.93;;
51467;SDS011;37545;45.302;-122.946;2023-07-08T05:53:21;3.92;;;0.70;;
51467;SDS011;37545;45.302;-122.946;2023-07-08T05:55:54;1.92;;;0.70;;
51467;SDS011;37545;45.302;-122.946;2023-07-08T05:58:22;2.35;;;0.70;;
51467;SDS011;37545;45.302;-122.946;2023-07-08T06:00:55;1.63;;;1.15;;
51467;SDS011;37545;45.302;-122.946;2023-07-08T06:03:24;3.03;;;0.73;;
51467;SDS011;37545;45.302;-122.946;2023-07-08T06:05:53;1.17;;;0.50;;
51467;SDS011;37545;45.302;-122.946;2023-07-08T06:08:21;1.50;;;0.60;;
51467;SDS011;37545;45.302;-122.946;2023-07-08T06:10:50;0.93;;;0.55;;
51467;SDS011;37545;45.302;-122.946;2023-07-08T06:13:20;2.15;;;0.60;;
51467;SDS011;37545;45.302;-122.946;2023-07-08T06:15:49;0.80;;;0.55;;
51467;SDS011;37545;45.302;-122.946;2023-07-08T06:18:17;1.60;;;0.70;;
51467;SDS011;37545;45.302;-122.946;2023-07-08T06:20:51;7.47;;;0.90;;
51467;SDS011;37545;45.302;-122.946;2023-07-08T06:23:20;1.55;;;0.60;;
51467;SDS011;37545;45.302;-122.946;2023-07-08T06:25:51;1.63;;;0.80;;
51467;SDS011;37545;45.302;-122.946;2023-07-08T06:28:21;3.25;;;0.63;;
51467;SDS011;37545;45.302;-122.946;2023-07-08T06:30:50;2.58;;;0.70;;
51467;SDS011;37545;45.302;-122.946;2023-07-08T06:33:19;1.27;;;0.60;;
51467;SDS011;37545;45.302;-122.946;2023-07-08T06:35:47;3.22;;;0.65;;
51467;SDS011;37545;45.302;-122.946;2023-07-08T06:38:16;3.38;;;0.77;;
51467;SDS011;37545;45.302;-122.946;2023-07-08T06:40:44;4.95;;;0.80;;
51467;SDS011;37545;45.302;-122.946;2023-07-08T06:43:13;1.08;;;0.70;;
51467;SDS011;37545;45.302;-122.946;2023-07-08T06:45:44;4.38;;;0.93;;
51467;SDS011;37545;45.302;-122.946;2023-07-08T06:48:13;1.83;;;0.73;;
51467;SDS011;37545;45.302;-122.946;2023-07-08T06:50:42;0.90;;;0.52;;
51467;SDS011;37545;45.302;-122.946;2023-07-08T06:53:13;1.95;;;0.93;;
51467;SDS011;37545;45.302;-122.946;2023-07-08T06:55:43;2.22;;;0.60;;
51467;SDS011;37545;45.302;-122.946;2023-07-08T06:58:12;1.13;;;0.50;;
51467;SDS011;37545;45.302;-122.946;2023-07-08T07:00:41;4.90;;;1.10;;
51467;SDS011;37545;45.302;-122.946;2023-07-08T07:03:12;9.40;;;0.90;;
51467;SDS011;37545;45.302;-122.946;2023-07-08T07:05:41;4.82;;;0.70;;
51467;SDS011;37545;45.302;-122.946;2023-07-08T07:08:10;2.83;;;0.50;;
51467;SDS011;37545;45.302;-122.946;2023-07-08T07:10:39;2.70;;;0.70;;
51467;SDS011;37545;45.302;-122.946;2023-07-08T07:13:09;2.92;;;1.02;;
51467;SDS011;37545;45.302;-122.946;2023-07-08T07:15:38;1.80;;;0.60;;
51467;SDS011;37545;45.302;-122.946;2023-07-08T07:18:08;4.63;;;0.60;;
51467;SDS011;37545;45.302;-122.946;2023-07-08T07:20:37;1.52;;;0.75;;
51467;SDS011;37545;45.302;-122.946;2023-07-08T07:23:05;1.27;;;0.75;;
51467;SDS011;37545;45.302;-122.946;2023-07-08T07:25:34;1.90;;;0.57;;
51467;SDS011;37545;45.302;-122.946;2023-07-08T07:28:03;1.45;;;0.90;;
51467;SDS011;37545;45.302;-122.946;2023-07-08T07:30:31;0.88;;;0.40;;
51467;SDS011;37545;45.302;-122.946;2023-07-08T07:33:00;2.13;;;0.63;;
51467;SDS011;37545;45.302;-122.946;2023-07-08T07:35:30;4.90;;;0.65;;
51467;SDS011;37545;45.302;-122.946;2023-07-08T07:37:59;0.93;;;0.60;;
51467;SDS011;37545;45.302;-122.946;2023-07-08T07:40:27;3.35;;;0.63;;
51467;SDS011;37545;45.302;-122.946;2023-07-08T07:42:55;5.88;;;0.70;;
51467;SDS011;37545;45.302;-122.946;2023-07-08T07:45:24;1.65;;;0.75;;
51467;SDS011;37545;45.302;-122.946;2023-07-08T07:47:55;2.00;;;0.75;;
51467;SDS011;37545;45.302;-122.946;2023-07-08T07:50:24;2.90;;;0.57;;
51467;SDS011;37545;45.302;-122.946;2023-07-08T07:52:54;3.20;;;1.00;;
51467;SDS011;37545;45.302;-122.946;2023-07-08T07:55:23;1.73;;;0.60;;
51467;SDS011;37545;45.302;-122.946;2023-07-08T07:57:51;3.20;;;1.02;;
51467;SDS011;37545;45.302;-122.946;2023-07-08T08:00:20;2.80;;;0.60;;
51467;SDS011;37545;45.302;-122.946;2023-07-08T08:02:49;0.47;;;0.30;;
51467;SDS011;37545;45.302;-122.946;2023-07-08T08:05:18;0.52;;;0.40;;
51467;SDS011;37545;45.302;-122.946;2023-07-08T08:07:46;2.65;;;0.60;;
51467;SDS011;37545;45.302;-122.946;2023-07-08T08:10:16;3.10;;;0.50;;
51467;SDS011;37545;45.302;-122.946;2023-07-08T08:12:45;1.00;;;0.73;;
51467;SDS011;37545;45.302;-122.946;2023-07-08T08:15:16;0.63;;;0.60;;
51467;SDS011;37545;45.302;-122.946;2023-07-08T08:17:44;1.77;;;0.80;;
51467;SDS011;37545;45.302;-122.946;2023-07-08T08:20:20;1.35;;;0.65;;
51467;SDS011;37545;45.302;-122.946;2023-07-08T08:22:50;0.40;;;0.40;;
51467;SDS011;37545;45.302;-122.946;2023-07-08T08:25:21;2.35;;;0.63;;
51467;SDS011;37545;45.302;-122.946;2023-07-08T08:27:50;3.85;;;0.55;;
51467;SDS011;37545;45.302;-122.946;2023-07-08T08:30:19;2.58;;;0.55;;
51467;SDS011;37545;45.302;-122.946;2023-07-08T08:32:48;1.25;;;0.50;;
51467;SDS011;37545;45.302;-122.946;2023-07-08T08:35:16;0.80;;;0.40;;
51467;SDS011;37545;45.302;-122.946;2023-07-08T08:37:45;0.50;;;0.38;;
51467;SDS011;37545;45.302;-122.946;2023-07-08T08:40:15;1.35;;;0.75;;
51467;SDS011;37545;45.302;-122.946;2023-07-08T08:42:50;0.93;;;0.50;;
51467;SDS011;37545;45.302;-122.946;2023-07-08T08:45:20;0.50;;;0.40;;
51467;SDS011;37545;45.302;-122.946;2023-07-08T08:47:52;0.33;;;0.33;;
51467;SDS011;37545;45.302;-122.946;2023-07-08T08:50:30;1.70;;;0.50;;
51467;SDS011;37545;45.302;-122.946;2023-07-08T08:53:01;0.75;;;0.40;;
51467;SDS011;37545;45.302;-122.946;2023-07-08T08:55:33;1.83;;;0.60;;
51467;SDS011;37545;45.302;-122.946;2023-07-08T08:58:05;0.98;;;0.40;;
51467;SDS011;37545;45.302;-122.946;2023-07-08T09:00:47;0.57;;;0.40;;
51467;SDS011;37545;45.302;-122.946;2023-07-08T09:03:24;1.65;;;0.55;;
51467;SDS011;37545;45.302;-122.946;2023-07-08T09:06:15;1.73;;;0.52;;
51467;SDS011;37545;45.302;-122.946;2023-07-08T09:11:27;0.70;;;0.50;;
51467;SDS011;37545;45.302;-122.946;2023-07-08T09:14:10;0.43;;;0.40;;
51467;SDS011;37545;45.302;-122.946;2023-07-08T09:16:44;1.60;;;0.55;;
51467;SDS011;37545;45.302;-122.946;2023-07-08T09:19:21;1.30;;;0.52;;
51467;SDS011;37545;45.302;-122.946;2023-07-08T09:21:53;0.95;;;0.50;;
51467;SDS011;37545;45.302;-122.946;2023-07-08T09:24:31;0.60;;;0.40;;
51467;SDS011;37545;45.302;-122.946;2023-07-08T09:27:05;0.70;;;0.60;;
51467;SDS011;37545;45.302;-122.946;2023-07-08T09:29:35;0.40;;;0.30;;
51467;SDS011;37545;45.302;-122.946;2023-07-08T09:32:11;1.67;;;0.70;;
51467;SDS011;37545;45.302;-122.946;2023-07-08T09:34:45;1.23;;;0.47;;
51467;SDS011;37545;45.302;-122.946;2023-07-08T09:37:26;0.50;;;0.40;;
51467;SDS011;37545;45.302;-122.946;2023-07-08T09:39:57;1.15;;;0.80;;
51467;SDS011;37545;45.302;-122.946;2023-07-08T09:42:27;0.98;;;0.50;;
51467;SDS011;37545;45.302;-122.946;2023-07-08T09:45:01;0.35;;;0.32;;
51467;SDS011;37545;45.302;-122.946;2023-07-08T09:47:33;0.90;;;0.40;;
51467;SDS011;37545;45.302;-122.946;2023-07-08T09:50:15;0.82;;;0.50;;
51467;SDS011;37545;45.302;-122.946;2023-07-08T09:52:45;0.82;;;0.50;;
51467;SDS011;37545;45.302;-122.946;2023-07-08T09:55:14;0.80;;;0.55;;
51467;SDS011;37545;45.302;-122.946;2023-07-08T09:57:43;1.00;;;0.50;;
51467;SDS011;37545;45.302;-122.946;2023-07-08T10:00:16;0.65;;;0.52;;
51467;SDS011;37545;45.302;-122.946;2023-07-08T10:02:49;1.75;;;0.60;;
51467;SDS011;37545;45.302;-122.946;2023-07-08T10:05:20;0.85;;;0.65;;
51467;SDS011;37545;45.302;-122.946;2023-07-08T10:07:53;3.65;;;0.70;;
51467;SDS011;37545;45.302;-122.946;2023-07-08T10:10:28;1.02;;;0.50;;
51467;SDS011;37545;45.302;-122.946;2023-07-08T10:13:01;0.70;;;0.43;;
51467;SDS011;37545;45.302;-122.946;2023-07-08T10:15:36;1.17;;;0.52;;
51467;SDS011;37545;45.302;-122.946;2023-07-08T10:18:09;0.80;;;0.50;;
51467;SDS011;37545;45.302;-122.946;2023-07-08T10:23:34;0.95;;;0.32;;
51467;SDS011;37545;45.302;-122.946;2023-07-08T10:26:13;0.63;;;0.38;;
51467;SDS011;37545;45.302;-122.946;2023-07-08T10:28:54;0.45;;;0.45;;
51467;SDS011;37545;45.302;-122.946;2023-07-08T10:31:41;0.45;;;0.35;;
51467;SDS011;37545;45.302;-122.946;2023-07-08T10:34:24;0.77;;;0.40;;
51467;SDS011;37545;45.302;-122.946;2023-07-08T10:37:04;1.85;;;0.40;;
51467;SDS011;37545;45.302;-122.946;2023-07-08T10:39:50;0.55;;;0.32;;
51467;SDS011;37545;45.302;-122.946;2023-07-08T10:45:20;0.40;;;0.40;;
51467;SDS011;37545;45.302;-122.946;2023-07-08T10:48:02;4.18;;;0.40;;
51467;SDS011;37545;45.302;-122.946;2023-07-08T10:50:44;0.70;;;0.65;;
51467;SDS011;37545;45.302;-122.946;2023-07-08T10:56:23;0.70;;;0.50;;
51467;SDS011;37545;45.302;-122.946;2023-07-08T10:59:06;0.65;;;0.40;;
51467;SDS011;37545;45.302;-122.946;2023-07-08T11:01:57;0.80;;;0.40;;
51467;SDS011;37545;45.302;-122.946;2023-07-08T11:04:42;0.95;;;0.40;;
51467;SDS011;37545;45.302;-122.946;2023-07-08T11:07:26;1.13;;;0.50;;
51467;SDS011;37545;45.302;-122.946;2023-07-08T11:10:01;0.43;;;0.30;;
51467;SDS011;37545;45.302;-122.946;2023-07-08T11:12:34;2.55;;;0.60;;
51467;SDS011;37545;45.302;-122.946;2023-07-08T11:15:12;0.38;;;0.30;;
51467;SDS011;37545;45.302;-122.946;2023-07-08T11:17:48;2.03;;;0.57;;
51467;SDS011;37545;45.302;-122.946;2023-07-08T11:20:22;4.95;;;0.57;;
51467;SDS011;37545;45.302;-122.946;2023-07-08T11:22:57;2.28;;;0.55;;
51467;SDS011;37545;45.302;-122.946;2023-07-08T11:25:29;0.68;;;0.40;;
51467;SDS011;37545;45.302;-122.946;2023-07-08T11:28:02;0.75;;;0.40;;
51467;SDS011;37545;45.302;-122.946;2023-07-08T11:30:52;2.03;;;0.60;;
51467;SDS011;37545;45.302;-122.946;2023-07-08T11:33:29;1.48;;;0.68;;
51467;SDS011;37545;45.302;-122.946;2023-07-08T11:36:01;2.20;;;0.60;;
51467;SDS011;37545;45.302;-122.946;2023-07-08T11:38:32;0.52;;;0.40;;
51467;SDS011;37545;45.302;-122.946;2023-07-08T11:41:01;0.93;;;0.40;;
51467;SDS011;37545;45.302;-122.946;2023-07-08T11:43:37;0.90;;;0.30;;
51467;SDS011;37545;45.302;-122.946;2023-07-08T11:46:20;3.40;;;0.40;;
51467;SDS011;37545;45.302;-122.946;2023-07-08T11:48:51;0.45;;;0.30;;
51467;SDS011;37545;45.302;-122.946;2023-07-08T11:51:23;2.78;;;0.40;;
51467;SDS011;37545;45.302;-122.946;2023-07-08T11:53:58;0.75;;;0.30;;
51467;SDS011;37545;45.302;-122.946;2023-07-08T11:56:29;0.47;;;0.40;;
51467;SDS011;37545;45.302;-122.946;2023-07-08T11:59:18;0.65;;;0.38;;
51467;SDS011;37545;45.302;-122.946;2023-07-08T12:01:48;0.63;;;0.43;;
51467;SDS011;37545;45.302;-122.946;2023-07-08T12:04:25;0.50;;;0.40;;
51467;SDS011;37545;45.302;-122.946;2023-07-08T12:07:05;0.93;;;0.50;;
51467;SDS011;37545;45.302;-122.946;2023-07-08T12:09:44;0.60;;;0.40;;
51467;SDS011;37545;45.302;-122.946;2023-07-08T12:12:21;0.55;;;0.45;;
51467;SDS011;37545;45.302;-122.946;2023-07-08T12:14:53;1.55;;;0.30;;
51467;SDS011;37545;45.302;-122.946;2023-07-08T12:17:27;0.43;;;0.30;;
51467;SDS011;37545;45.302;-122.946;2023-07-08T12:19:57;0.30;;;0.30;;
51467;SDS011;37545;45.302;-122.946;2023-07-08T12:22:35;1.35;;;0.50;;
51467;SDS011;37545;45.302;-122.946;2023-07-08T12:25:08;0.60;;;0.40;;
51467;SDS011;37545;45.302;-122.946;2023-07-08T12:27:39;0.43;;;0.38;;
51467;SDS011;37545;45.302;-122.946;2023-07-08T12:30:08;1.23;;;0.63;;
51467;SDS011;37545;45.302;-122.946;2023-07-08T12:32:41;1.08;;;0.40;;
51467;SDS011;37545;45.302;-122.946;2023-07-08T12:35:17;0.57;;;0.40;;
51467;SDS011;37545;45.302;-122.946;2023-07-08T12:37:55;0.88;;;0.57;;
51467;SDS011;37545;45.302;-122.946;2023-07-08T12:40:26;1.00;;;0.63;;
51467;SDS011;37545;45.302;-122.946;2023-07-08T12:42:56;0.50;;;0.47;;
51467;SDS011;37545;45.302;-122.946;2023-07-08T12:45:27;1.80;;;0.50;;
51467;SDS011;37545;45.302;-122.946;2023-07-08T12:48:03;0.63;;;0.50;;
51467;SDS011;37545;45.302;-122.946;2023-07-08T12:50:32;0.73;;;0.50;;
51467;SDS011;37545;45.302;-122.946;2023-07-08T12:53:03;0.90;;;0.50;;
51467;SDS011;37545;45.302;-122.946;2023-07-08T12:55:35;0.52;;;0.50;;
51467;SDS011;37545;45.302;-122.946;2023-07-08T12:58:07;1.00;;;0.55;;
51467;SDS011;37545;45.302;-122.946;2023-07-08T13:00:40;0.70;;;0.50;;
51467;SDS011;37545;45.302;-122.946;2023-07-08T13:03:12;0.73;;;0.57;;
51467;SDS011;37545;45.302;-122.946;2023-07-08T13:05:43;1.65;;;0.50;;
51467;SDS011;37545;45.302;-122.946;2023-07-08T13:08:14;1.40;;;0.40;;
51467;SDS011;37545;45.302;-122.946;2023-07-08T13:10:45;0.50;;;0.50;;
51467;SDS011;37545;45.302;-122.946;2023-07-08T13:13:15;0.70;;;0.70;;
51467;SDS011;37545;45.302;-122.946;2023-07-08T13:15:49;1.08;;;0.70;;
51467;SDS011;37545;45.302;-122.946;2023-07-08T13:18:20;0.60;;;0.50;;
51467;SDS011;37545;45.302;-122.946;2023-07-08T13:20:51;1.50;;;0.88;;
51467;SDS011;37545;45.302;-122.946;2023-07-08T13:23:23;1.90;;;0.90;;
51467;SDS011;37545;45.302;-122.946;2023-07-08T13:25:53;0.60;;;0.60;;
51467;SDS011;37545;45.302;-122.946;2023-07-08T13:28:23;0.60;;;0.50;;
51467;SDS011;37545;45.302;-122.946;2023-07-08T13:30:54;2.83;;;1.10;;
51467;SDS011;37545;45.302;-122.946;2023-07-08T13:33:28;2.03;;;1.02;;
51467;SDS011;37545;45.302;-122.946;2023-07-08T13:35:58;0.98;;;0.85;;
51467;SDS011;37545;45.302;-122.946;2023-07-08T13:38:33;1.75;;;0.98;;
51467;SDS011;37545;45.302;-122.946;2023-07-08T13:41:03;2.70;;;1.08;;
51467;SDS011;37545;45.302;-122.946;2023-07-08T13:43:34;2.25;;;0.75;;
51467;SDS011;37545;45.302;-122.946;2023-07-08T13:46:25;3.15;;;1.02;;
51467;SDS011;37545;45.302;-122.946;2023-07-08T13:48:58;1.52;;;0.70;;
51467;SDS011;37545;45.302;-122.946;2023-07-08T13:51:30;1.67;;;1.45;;
51467;SDS011;37545;45.302;-122.946;2023-07-08T13:54:09;1.13;;;0.70;;
51467;SDS011;37545;45.302;-122.946;2023-07-08T13:56:43;1.95;;;0.60;;
51467;SDS011;37545;45.302;-122.946;2023-07-08T13:59:15;1.67;;;0.45;;
51467;SDS011;37545;45.302;-122.946;2023-07-08T14:01:45;0.43;;;0.40;;
51467;SDS011;37545;45.302;-122.946;2023-07-08T14:04:18;1.48;;;0.50;;
51467;SDS011;37545;45.302;-122.946;2023-07-08T14:06:55;2.58;;;0.93;;
51467;SDS011;37545;45.302;-122.946;2023-07-08T14:09:26;2.33;;;0.60;;
51467;SDS011;37545;45.302;-122.946;2023-07-08T14:11:55;0.73;;;0.65;;
51467;SDS011;37545;45.302;-122.946;2023-07-08T14:14:23;0.60;;;0.50;;
51467;SDS011;37545;45.302;-122.946;2023-07-08T14:16:52;1.48;;;0.50;;
51467;SDS011;37545;45.302;-122.946;2023-07-08T14:19:25;0.50;;;0.45;;
51467;SDS011;37545;45.302;-122.946;2023-07-08T14:21:59;2.83;;;0.73;;
51467;SDS011;37545;45.302;-122.946;2023-07-08T14:24:30;2.95;;;0.70;;
51467;SDS011;37545;45.302;-122.946;2023-07-08T14:26:59;1.67;;;0.57;;
51467;SDS011;37545;45.302;-122.946;2023-07-08T14:29:28;0.57;;;0.43;;
51467;SDS011;37545;45.302;-122.946;2023-07-08T14:31:57;0.52;;;0.45;;
51467;SDS011;37545;45.302;-122.946;2023-07-08T14:34:25;5.93;;;0.70;;
51467;SDS011;37545;45.302;-122.946;2023-07-08T14:36:55;0.95;;;0.60;;
51467;SDS011;37545;45.302;-122.946;2023-07-08T14:39:23;1.55;;;0.45;;
51467;SDS011;37545;45.302;-122.946;2023-07-08T14:41:54;0.82;;;0.50;;
51467;SDS011;37545;45.302;-122.946;2023-07-08T14:44:23;0.90;;;0.57;;
51467;SDS011;37545;45.302;-122.946;2023-07-08T14:46:54;0.55;;;0.40;;